createdAt,value
2019-03-31T00:01:21.263Z,15.65
2019-03-31T00:03:41.815Z,14.87
2019-03-31T00:06:02.419Z,14.15
2019-03-31T00:08:23.164Z,13.80
2019-03-31T00:10:43.816Z,13.35
2019-03-31T00:13:09.165Z,13.53
2019-03-31T00:15:29.694Z,14.45
2019-03-31T00:17:50.262Z,13.80
2019-03-31T00:20:10.989Z,13.75
2019-03-31T00:22:31.504Z,14.58
2019-03-31T00:25:11.829Z,13.78
2019-03-31T00:27:32.547Z,13.90
2019-03-31T00:29:53.187Z,13.60
2019-03-31T00:32:13.900Z,13.62
2019-03-31T00:34:35.436Z,14.10
2019-03-31T00:36:56.950Z,14.87
2019-03-31T00:39:18.568Z,14.25
2019-03-31T00:41:39.178Z,13.45
2019-03-31T00:43:59.670Z,14.45
2019-03-31T00:46:21.766Z,13.83
2019-03-31T00:48:42.294Z,14.63
2019-03-31T00:51:02.913Z,14.85
2019-03-31T00:53:23.534Z,14.18
2019-03-31T00:55:44.106Z,12.63
2019-03-31T00:58:04.772Z,14.38
2019-03-31T01:00:44.189Z,13.55
2019-03-31T01:03:10.972Z,14.83
2019-03-31T01:05:31.922Z,12.63
2019-03-31T01:07:52.722Z,13.83
2019-03-31T01:10:13.746Z,12.82
2019-03-31T01:12:34.803Z,13.40
2019-03-31T01:14:56.070Z,12.60
2019-03-31T01:17:19.017Z,12.78
2019-03-31T01:19:39.439Z,13.00
2019-03-31T01:22:00.108Z,12.93
2019-03-31T01:24:21.074Z,12.50
2019-03-31T01:26:42.244Z,12.53
2019-03-31T01:29:03.156Z,13.05
2019-03-31T01:31:23.785Z,12.98
2019-03-31T01:33:44.700Z,12.95
2019-03-31T01:36:05.469Z,13.18
2019-03-31T01:38:26.077Z,13.35
2019-03-31T01:40:47.256Z,13.28
2019-03-31T01:43:08.115Z,12.88
2019-03-31T01:45:28.670Z,12.47
2019-03-31T01:47:49.419Z,13.15
2019-03-31T01:50:12.412Z,11.90
2019-03-31T01:52:33.610Z,14.00
2019-03-31T01:54:54.156Z,12.63
2019-03-31T01:57:14.701Z,12.53
2019-03-31T01:59:35.229Z,12.98
2019-03-31T02:02:03.985Z,12.98
2019-03-31T02:04:20.133Z,12.73
2019-03-31T02:06:40.659Z,13.13
2019-03-31T02:09:01.138Z,12.55
2019-03-31T02:11:22.850Z,10.33
2019-03-31T02:13:43.479Z,13.00
2019-03-31T02:16:04.040Z,13.00
2019-03-31T02:18:24.590Z,13.13
2019-03-31T02:20:45.115Z,12.30
2019-03-31T02:23:05.757Z,12.45
2019-03-31T02:25:26.232Z,12.43
2019-03-31T02:27:46.746Z,12.40
2019-03-31T02:30:07.561Z,12.53
2019-03-31T02:32:30.898Z,12.13
2019-03-31T02:34:51.453Z,13.30
2019-03-31T02:37:12.019Z,13.38
2019-03-31T02:39:32.576Z,12.73
2019-03-31T02:41:53.063Z,12.13
2019-03-31T02:44:13.634Z,12.33
2019-03-31T02:46:34.130Z,13.50
2019-03-31T02:48:54.625Z,11.48
2019-03-31T02:51:15.277Z,13.30
2019-03-31T02:53:35.982Z,12.85
2019-03-31T02:55:56.640Z,13.38
2019-03-31T02:58:18.123Z,13.00
2019-03-31T03:00:38.811Z,13.13
2019-03-31T03:02:59.473Z,13.70
2019-03-31T03:05:22.263Z,13.15
2019-03-31T03:07:45.523Z,12.90
2019-03-31T03:10:06.565Z,12.45
2019-03-31T03:12:29.654Z,12.58
2019-03-31T03:17:09.406Z,11.18
2019-03-31T03:19:30.058Z,11.65
2019-03-31T03:21:50.886Z,12.40
2019-03-31T03:24:11.496Z,12.85
2019-03-31T03:26:32.113Z,13.28
2019-03-31T03:28:53.984Z,13.28
2019-03-31T03:31:16.541Z,12.73
2019-03-31T03:33:36.878Z,12.73
2019-03-31T03:35:57.559Z,13.32
2019-03-31T03:38:18.080Z,12.07
2019-03-31T03:40:38.610Z,12.23
2019-03-31T03:42:59.139Z,12.58
2019-03-31T03:45:19.801Z,13.15
2019-03-31T03:47:40.346Z,13.20
2019-03-31T03:50:00.900Z,13.10
2019-03-31T03:52:21.382Z,13.13
2019-03-31T03:54:41.855Z,13.35
2019-03-31T03:57:02.445Z,12.23
2019-03-31T03:59:24.029Z,13.70
2019-03-31T04:01:44.543Z,12.98
2019-03-31T04:04:05.097Z,12.80
2019-03-31T04:06:25.605Z,13.22
2019-03-31T04:08:46.204Z,12.55
2019-03-31T04:11:15.632Z,13.35
2019-03-31T04:13:36.117Z,12.85
2019-03-31T04:15:56.689Z,12.95
2019-03-31T04:18:17.246Z,13.45
2019-03-31T04:20:39.469Z,12.70
2019-03-31T04:22:59.379Z,13.33
2019-03-31T04:25:21.372Z,12.75
2019-03-31T04:27:41.896Z,12.35
2019-03-31T04:30:02.406Z,12.68
2019-03-31T04:32:23.944Z,13.53
2019-03-31T04:34:44.494Z,13.15
2019-03-31T04:37:05.101Z,12.78
2019-03-31T04:39:25.593Z,13.30
2019-03-31T04:41:53.007Z,9.53
2019-03-31T04:44:19.083Z,12.90
2019-03-31T04:46:39.859Z,13.65
2019-03-31T04:49:07.138Z,12.85
2019-03-31T04:51:29.249Z,14.25
2019-03-31T04:53:49.821Z,13.35
2019-03-31T04:56:10.477Z,13.88
2019-03-31T04:58:31.043Z,14.15
2019-03-31T05:00:54.020Z,13.25
2019-03-31T05:03:14.018Z,13.50
2019-03-31T05:05:36.158Z,13.25
2019-03-31T05:07:56.836Z,13.25
2019-03-31T05:10:17.467Z,14.00
2019-03-31T05:12:38.096Z,14.38
2019-03-31T05:14:58.707Z,14.43
2019-03-31T05:17:19.242Z,14.20
2019-03-31T05:19:39.770Z,13.43
2019-03-31T05:22:00.336Z,14.55
2019-03-31T05:24:20.841Z,13.93
2019-03-31T05:26:41.321Z,13.45
2019-03-31T05:29:01.771Z,13.80
2019-03-31T05:31:24.663Z,12.65
2019-03-31T05:36:06.779Z,12.85
2019-03-31T05:38:27.246Z,13.03
2019-03-31T05:40:47.835Z,12.47
2019-03-31T05:43:08.360Z,12.85
2019-03-31T05:45:28.914Z,13.20
2019-03-31T05:47:49.506Z,13.18
2019-03-31T05:50:10.396Z,13.55
2019-03-31T05:52:30.854Z,13.25
2019-03-31T05:54:51.329Z,13.22
2019-03-31T05:57:11.929Z,14.40
2019-03-31T05:59:32.563Z,13.65
2019-03-31T06:01:53.028Z,14.45
2019-03-31T06:04:15.047Z,15.05
2019-03-31T06:06:37.137Z,15.15
2019-03-31T06:09:00.563Z,14.87
2019-03-31T06:11:21.073Z,15.15
2019-03-31T06:13:41.625Z,15.05
2019-03-31T06:16:02.257Z,15.30
2019-03-31T06:18:22.863Z,14.43
2019-03-31T06:20:43.379Z,15.23
2019-03-31T06:23:04.003Z,15.88
2019-03-31T06:25:24.562Z,14.53
2019-03-31T06:27:46.039Z,14.43
2019-03-31T06:30:14.153Z,14.75
2019-03-31T06:32:34.672Z,13.03
2019-03-31T06:34:55.196Z,13.32
2019-03-31T06:37:15.687Z,13.68
2019-03-31T06:39:36.210Z,13.18
2019-03-31T06:41:56.951Z,12.53
2019-03-31T06:44:18.095Z,13.20
2019-03-31T06:46:38.085Z,12.93
2019-03-31T06:48:58.075Z,12.73
2019-03-31T06:51:18.076Z,12.15
2019-03-31T06:53:38.119Z,12.40
2019-03-31T06:55:59.037Z,11.08
2019-03-31T06:58:19.010Z,11.12
2019-03-31T07:00:39.260Z,9.33
2019-03-31T07:03:01.510Z,10.63
2019-03-31T07:05:23.596Z,10.27
2019-03-31T07:07:45.571Z,9.83
2019-03-31T07:10:07.425Z,8.33
2019-03-31T07:12:27.619Z,8.53
2019-03-31T07:14:47.865Z,7.60
2019-03-31T07:17:08.110Z,7.43
2019-03-31T07:19:28.344Z,7.50
2019-03-31T07:21:48.647Z,7.20
2019-03-31T07:24:08.899Z,7.23
2019-03-31T07:26:29.160Z,7.03
2019-03-31T07:28:49.383Z,6.70
2019-03-31T07:31:09.553Z,7.00
2019-03-31T07:33:29.739Z,7.30
2019-03-31T07:35:50.109Z,6.77
2019-03-31T07:38:10.338Z,6.90
2019-03-31T07:40:31.596Z,7.40
2019-03-31T07:42:53.178Z,7.40
2019-03-31T07:45:15.023Z,7.53
2019-03-31T07:47:35.056Z,7.67
2019-03-31T07:49:55.096Z,6.97
2019-03-31T07:52:15.054Z,7.08
2019-03-31T07:54:36.272Z,7.62
2019-03-31T07:56:56.196Z,7.97
2019-03-31T07:59:16.116Z,7.78
2019-03-31T08:01:36.271Z,7.25
2019-03-31T08:03:59.057Z,7.90
2019-03-31T08:06:18.990Z,8.30
2019-03-31T08:08:40.508Z,8.75
2019-03-31T08:11:00.862Z,8.67
2019-03-31T08:13:21.091Z,8.70
2019-03-31T08:15:41.480Z,9.50
2019-03-31T08:18:01.611Z,9.78
2019-03-31T08:20:21.958Z,10.38
2019-03-31T08:22:43.018Z,9.30
2019-03-31T08:25:03.544Z,8.58
2019-03-31T08:27:23.535Z,9.85
2019-03-31T08:29:43.799Z,10.35
2019-03-31T08:32:03.808Z,10.72
2019-03-31T08:34:23.775Z,11.70
2019-03-31T08:36:43.661Z,11.53
2019-03-31T08:39:06.055Z,10.80
2019-03-31T08:41:26.469Z,10.60
2019-03-31T08:43:46.370Z,11.68
2019-03-31T08:46:06.443Z,11.60
2019-03-31T08:48:26.780Z,12.40
2019-03-31T08:50:47.048Z,11.60
2019-03-31T08:53:07.559Z,12.50
2019-03-31T08:55:27.848Z,12.00
2019-03-31T08:57:49.995Z,13.13
2019-03-31T09:00:12.728Z,12.70
2019-03-31T09:05:17.148Z,13.35
2019-03-31T09:07:37.355Z,13.88
2019-03-31T09:09:57.369Z,14.25
2019-03-31T09:12:17.421Z,13.68
2019-03-31T09:14:37.880Z,13.97
2019-03-31T09:16:58.465Z,13.83
2019-03-31T09:19:18.816Z,13.53
2019-03-31T09:21:39.123Z,13.47
2019-03-31T09:23:59.628Z,13.57
2019-03-31T09:26:19.921Z,12.67
2019-03-31T09:28:40.193Z,14.47
2019-03-31T09:31:00.270Z,14.05
2019-03-31T09:33:20.246Z,13.88
2019-03-31T09:35:40.291Z,13.62
2019-03-31T09:38:03.402Z,14.45
2019-03-31T09:40:23.571Z,12.95
2019-03-31T09:42:43.706Z,13.70
2019-03-31T09:45:03.929Z,12.20
2019-03-31T09:47:23.844Z,13.43
2019-03-31T09:49:43.912Z,13.40
2019-03-31T09:52:04.218Z,12.13
2019-03-31T09:54:24.309Z,12.73
2019-03-31T09:56:44.376Z,13.25
2019-03-31T09:59:05.516Z,13.55
2019-03-31T10:01:26.907Z,13.30
2019-03-31T10:03:48.399Z,13.28
2019-03-31T10:06:10.999Z,13.68
2019-03-31T10:08:30.192Z,13.55
2019-03-31T10:10:50.674Z,13.23
2019-03-31T10:13:10.973Z,12.60
2019-03-31T10:15:31.230Z,12.00
2019-03-31T10:17:51.496Z,11.60
2019-03-31T10:20:12.161Z,13.40
2019-03-31T10:22:32.411Z,12.40
2019-03-31T10:24:52.898Z,11.80
2019-03-31T10:27:13.212Z,12.80
2019-03-31T10:29:33.647Z,12.47
2019-03-31T10:31:53.930Z,12.17
2019-03-31T10:34:14.218Z,13.03
2019-03-31T10:36:44.432Z,12.30
2019-03-31T10:38:56.434Z,11.67
2019-03-31T10:41:16.795Z,12.37
2019-03-31T10:43:37.150Z,11.40
2019-03-31T10:46:01.106Z,13.20
2019-03-31T10:48:21.576Z,12.23
2019-03-31T10:50:42.860Z,12.07
2019-03-31T10:53:03.252Z,11.97
2019-03-31T10:55:23.633Z,12.33
2019-03-31T10:57:45.020Z,12.23
2019-03-31T11:00:10.211Z,13.20
2019-03-31T11:02:30.563Z,12.40
2019-03-31T11:04:50.888Z,12.67
2019-03-31T11:07:11.225Z,12.23
2019-03-31T11:09:34.223Z,12.03
2019-03-31T11:11:53.479Z,12.47
2019-03-31T11:14:13.721Z,12.10
2019-03-31T11:16:40.710Z,11.90
2019-03-31T11:19:01.066Z,11.50
2019-03-31T11:21:23.102Z,12.07
2019-03-31T11:23:43.690Z,12.07
2019-03-31T11:26:03.771Z,11.55
2019-03-31T11:28:24.486Z,12.10
2019-03-31T11:30:44.475Z,10.58
2019-03-31T11:33:08.116Z,12.00
2019-03-31T11:35:28.118Z,11.40
2019-03-31T11:37:48.096Z,9.90
2019-03-31T11:40:08.705Z,9.90
2019-03-31T11:42:28.733Z,10.93
2019-03-31T11:44:49.128Z,10.67
2019-03-31T11:47:09.358Z,10.27
2019-03-31T11:49:29.773Z,9.47
2019-03-31T11:51:50.008Z,10.40
2019-03-31T11:56:42.617Z,11.23
2019-03-31T11:59:02.871Z,9.77
2019-03-31T12:01:23.367Z,8.90
2019-03-31T12:03:43.673Z,8.03
2019-03-31T12:06:04.022Z,9.37
2019-03-31T12:08:24.362Z,8.93
2019-03-31T12:10:46.287Z,8.83
2019-03-31T12:13:06.478Z,9.70
2019-03-31T12:15:26.763Z,9.30
2019-03-31T12:17:47.256Z,9.47
2019-03-31T12:20:09.615Z,9.13
2019-03-31T12:22:30.733Z,9.23
2019-03-31T12:24:50.747Z,9.38
2019-03-31T12:27:10.875Z,9.38
2019-03-31T12:29:30.862Z,9.40
2019-03-31T12:31:51.090Z,9.20
2019-03-31T12:34:11.011Z,9.78
2019-03-31T12:36:30.978Z,9.15
2019-03-31T12:38:53.693Z,9.08
2019-03-31T12:41:12.875Z,8.93
2019-03-31T12:43:33.262Z,9.03
2019-03-31T12:45:54.561Z,8.80
2019-03-31T12:48:14.864Z,8.50
2019-03-31T12:50:35.176Z,8.77
2019-03-31T12:52:55.718Z,8.73
2019-03-31T12:55:16.023Z,8.63
2019-03-31T12:57:36.260Z,8.50
2019-03-31T12:59:56.528Z,8.87
2019-03-31T13:02:16.845Z,8.60
2019-03-31T13:04:37.078Z,8.37
2019-03-31T13:06:57.225Z,8.30
2019-03-31T13:09:17.929Z,7.60
2019-03-31T13:11:38.190Z,7.70
2019-03-31T13:13:58.354Z,7.40
2019-03-31T13:16:18.628Z,8.17
2019-03-31T13:18:38.842Z,7.83
2019-03-31T13:20:59.033Z,7.70
2019-03-31T13:23:20.468Z,8.23
2019-03-31T13:25:40.617Z,7.17
2019-03-31T13:28:01.046Z,7.67
2019-03-31T13:30:22.194Z,7.27
2019-03-31T13:32:42.782Z,7.47
2019-03-31T13:35:03.469Z,7.30
2019-03-31T13:37:23.698Z,7.50
2019-03-31T13:39:47.553Z,7.90
2019-03-31T13:42:07.546Z,7.50
2019-03-31T13:44:28.248Z,6.97
2019-03-31T13:46:50.065Z,7.10
2019-03-31T13:49:10.493Z,6.90
2019-03-31T13:51:30.723Z,6.13
2019-03-31T13:53:50.921Z,7.00
2019-03-31T13:56:13.923Z,6.73
2019-03-31T13:58:36.003Z,6.57
2019-03-31T14:00:57.365Z,7.23
2019-03-31T14:03:17.419Z,7.10
2019-03-31T14:05:37.393Z,7.30
2019-03-31T14:07:57.626Z,6.43
2019-03-31T14:10:17.590Z,6.50
2019-03-31T14:12:39.115Z,6.37
2019-03-31T14:14:59.110Z,6.67
2019-03-31T14:17:19.047Z,7.62
2019-03-31T14:19:39.316Z,7.53
2019-03-31T14:22:01.379Z,6.90
2019-03-31T14:24:21.768Z,6.80
2019-03-31T14:26:42.131Z,6.60
2019-03-31T14:29:05.144Z,6.53
2019-03-31T14:33:47.066Z,7.55
2019-03-31T14:36:07.214Z,7.60
2019-03-31T14:38:39.461Z,8.05
2019-03-31T14:40:49.208Z,8.07
2019-03-31T14:43:09.641Z,7.93
2019-03-31T14:45:35.864Z,6.97
2019-03-31T14:47:56.118Z,7.03
2019-03-31T14:50:20.488Z,6.50
2019-03-31T14:52:40.809Z,6.63
2019-03-31T14:55:01.063Z,7.20
2019-03-31T14:57:21.357Z,6.57
2019-03-31T14:59:41.634Z,6.40
2019-03-31T15:02:01.860Z,6.43
2019-03-31T15:04:22.022Z,7.40
2019-03-31T15:06:45.441Z,6.63
2019-03-31T15:09:08.042Z,7.20
2019-03-31T15:11:28.291Z,6.80
2019-03-31T15:13:50.391Z,7.40
2019-03-31T15:16:10.583Z,7.37
2019-03-31T15:18:30.730Z,7.22
2019-03-31T15:20:51.021Z,6.90
2019-03-31T15:23:11.277Z,6.47
2019-03-31T15:25:33.163Z,7.13
2019-03-31T15:27:53.390Z,6.83
2019-03-31T15:30:15.998Z,7.30
2019-03-31T15:32:36.271Z,7.37
2019-03-31T15:34:56.327Z,6.03
2019-03-31T15:37:16.599Z,6.67
2019-03-31T15:39:36.888Z,6.33
2019-03-31T15:41:57.096Z,6.23
2019-03-31T15:44:17.416Z,6.90
2019-03-31T15:46:39.320Z,6.23
2019-03-31T15:48:59.548Z,6.50
2019-03-31T15:51:20.073Z,6.33
2019-03-31T15:53:40.309Z,6.37
2019-03-31T15:56:00.602Z,6.57
2019-03-31T15:58:22.381Z,6.90
2019-03-31T16:00:42.534Z,5.97
2019-03-31T16:03:02.735Z,6.33
2019-03-31T16:05:23.117Z,6.73
2019-03-31T16:07:46.849Z,7.17
2019-03-31T16:10:18.238Z,7.47
2019-03-31T16:12:38.358Z,7.35
2019-03-31T16:14:58.344Z,6.70
2019-03-31T16:17:18.686Z,6.57
2019-03-31T16:19:39.015Z,6.47
2019-03-31T16:21:59.280Z,6.67
2019-03-31T16:24:21.125Z,7.00
2019-03-31T16:26:41.350Z,6.33
2019-03-31T16:29:01.620Z,6.23
2019-03-31T16:31:23.370Z,6.47
2019-03-31T16:33:43.780Z,6.43
2019-03-31T16:36:03.948Z,6.97
2019-03-31T16:38:25.901Z,7.23
2019-03-31T16:40:46.332Z,7.80
2019-03-31T16:43:06.573Z,7.40
2019-03-31T16:45:26.824Z,7.13
2019-03-31T16:47:47.084Z,7.03
2019-03-31T16:50:08.253Z,7.10
2019-03-31T16:52:28.641Z,6.67
2019-03-31T16:54:48.935Z,6.77
2019-03-31T16:57:09.101Z,7.23
2019-03-31T16:59:29.375Z,6.90
2019-03-31T17:01:49.603Z,6.23
2019-03-31T17:04:09.799Z,6.43
2019-03-31T17:06:30.110Z,7.30
2019-03-31T17:08:50.384Z,6.97
2019-03-31T17:11:11.586Z,6.30
2019-03-31T17:13:32.325Z,6.73
2019-03-31T17:15:53.057Z,7.50
2019-03-31T17:18:19.779Z,7.43
2019-03-31T17:20:40.077Z,7.13
2019-03-31T17:23:00.358Z,7.23
2019-03-31T17:25:20.639Z,6.87
2019-03-31T17:27:40.873Z,7.00
2019-03-31T17:30:01.143Z,6.73
2019-03-31T17:32:21.855Z,7.37
2019-03-31T17:34:43.058Z,7.53
2019-03-31T17:37:04.273Z,7.77
2019-03-31T17:39:24.848Z,7.17
2019-03-31T17:41:45.104Z,8.23
2019-03-31T17:44:05.434Z,7.37
2019-03-31T17:46:25.631Z,8.03
2019-03-31T17:48:48.621Z,7.28
2019-03-31T17:51:08.964Z,6.45
2019-03-31T17:53:29.649Z,7.67
2019-03-31T17:55:49.975Z,7.70
2019-03-31T17:58:21.691Z,8.33
2019-03-31T18:00:32.404Z,7.53
2019-03-31T18:02:54.312Z,7.93
2019-03-31T18:05:14.637Z,7.63
2019-03-31T18:07:37.824Z,8.00
2019-03-31T18:12:17.082Z,8.35
2019-03-31T18:18:15.329Z,8.40
2019-03-31T18:20:36.888Z,7.60
2019-03-31T18:22:57.369Z,8.03
2019-03-31T18:25:17.621Z,8.57
2019-03-31T18:27:38.371Z,8.88
2019-03-31T18:29:58.901Z,8.88
2019-03-31T18:32:21.748Z,8.63
2019-03-31T18:39:47.800Z,8.83
2019-03-31T18:42:08.283Z,9.00
2019-03-31T18:44:29.149Z,9.08
2019-03-31T18:46:49.355Z,8.78
2019-03-31T18:49:09.934Z,10.98
2019-03-31T18:51:30.263Z,9.70
2019-03-31T18:54:11.411Z,10.63
2019-03-31T18:56:42.487Z,11.30
2019-03-31T18:59:20.302Z,12.43
2019-03-31T19:01:51.091Z,13.08
2019-03-31T19:04:41.724Z,13.40
2019-03-31T19:07:17.223Z,13.05
2019-03-31T19:09:58.376Z,14.07
2019-03-31T19:12:39.249Z,13.75
2019-03-31T19:15:10.061Z,14.10
2019-03-31T19:17:57.049Z,13.50
2019-03-31T19:20:42.535Z,12.20
2019-03-31T19:23:12.463Z,9.68
2019-03-31T19:25:37.348Z,13.05
2019-03-31T19:28:12.049Z,11.70
2019-03-31T19:30:34.616Z,11.85
2019-03-31T19:33:12.877Z,12.20
2019-03-31T19:35:35.851Z,12.73
2019-03-31T19:38:21.813Z,13.72
2019-03-31T19:41:03.815Z,13.37
2019-03-31T19:43:29.331Z,13.65
2019-03-31T19:46:05.327Z,13.15
2019-03-31T19:48:26.070Z,13.08
2019-03-31T19:50:51.935Z,13.05
2019-03-31T19:53:17.130Z,12.58
2019-03-31T19:55:44.633Z,12.58
2019-03-31T19:58:12.427Z,12.60
2019-03-31T20:00:43.455Z,13.45
2019-03-31T20:03:05.926Z,13.60
2019-03-31T20:05:30.356Z,13.10
2019-03-31T20:07:56.728Z,13.03
2019-03-31T20:10:36.864Z,12.88
2019-03-31T20:13:05.734Z,14.00
2019-03-31T20:15:39.277Z,13.65
2019-03-31T20:18:11.867Z,14.35
2019-03-31T20:20:34.548Z,16.10
2019-03-31T20:22:59.416Z,16.23
2019-03-31T20:25:21.092Z,17.07
2019-03-31T20:27:49.516Z,18.77
2019-03-31T20:30:16.261Z,18.12
2019-03-31T20:32:40.848Z,16.57
2019-03-31T20:35:28.693Z,15.93
2019-03-31T20:37:51.128Z,15.88
2019-03-31T20:40:12.973Z,16.03
2019-03-31T20:42:40.388Z,15.28
2019-03-31T20:45:00.972Z,13.65
2019-03-31T20:47:21.100Z,13.60
2019-03-31T20:49:41.686Z,13.28
2019-03-31T20:52:02.704Z,14.50
2019-03-31T20:54:23.540Z,14.43
2019-03-31T20:56:44.392Z,14.58
2019-03-31T20:59:05.143Z,15.40
2019-03-31T21:01:25.766Z,14.15
2019-03-31T21:03:45.777Z,14.00
2019-03-31T21:06:06.439Z,13.55
2019-03-31T21:08:27.204Z,14.83
2019-03-31T21:10:53.113Z,13.67
2019-03-31T21:13:13.783Z,13.55
2019-03-31T21:15:33.907Z,11.97
2019-03-31T21:17:55.280Z,11.60
2019-03-31T21:20:20.710Z,11.90
2019-03-31T21:22:46.046Z,12.13
2019-03-31T21:25:13.447Z,12.05
2019-03-31T21:27:31.965Z,11.97
2019-03-31T21:29:54.734Z,11.43
2019-03-31T21:32:15.566Z,12.10
2019-03-31T21:34:36.247Z,12.50
2019-03-31T21:40:41.253Z,13.15
2019-03-31T21:43:01.849Z,13.38
2019-03-31T21:45:22.787Z,13.00
2019-03-31T21:47:43.752Z,12.80
2019-03-31T21:50:06.479Z,13.38
2019-03-31T21:52:26.878Z,12.28
2019-03-31T21:54:47.986Z,13.85
2019-03-31T21:57:09.663Z,13.03
2019-03-31T21:59:29.658Z,14.83
2019-03-31T22:01:50.491Z,14.63
2019-03-31T22:04:11.243Z,15.18
2019-03-31T22:06:32.320Z,13.50
2019-03-31T22:08:55.869Z,12.90
2019-03-31T22:11:17.079Z,13.95
2019-03-31T22:13:37.122Z,13.10
2019-03-31T22:15:58.024Z,12.75
2019-03-31T22:18:18.144Z,13.45
2019-03-31T22:20:38.797Z,12.55
2019-03-31T22:22:59.437Z,12.35
2019-03-31T22:25:20.299Z,12.30
2019-03-31T22:27:41.092Z,12.05
2019-03-31T22:30:01.195Z,11.75
2019-03-31T22:32:21.467Z,11.40
2019-03-31T22:34:42.162Z,11.93
2019-03-31T22:37:02.284Z,11.97
2019-03-31T22:39:22.827Z,11.90
2019-03-31T22:41:43.669Z,12.20
2019-03-31T22:44:05.072Z,11.73
2019-03-31T22:46:26.943Z,11.43
2019-03-31T22:48:47.575Z,12.25
2019-03-31T22:51:08.224Z,12.70
2019-03-31T22:53:29.021Z,11.83
2019-03-31T22:55:49.710Z,11.75
2019-03-31T22:58:10.388Z,11.55
2019-03-31T23:00:30.986Z,12.43
2019-03-31T23:02:51.852Z,12.15
2019-03-31T23:05:12.463Z,11.90
2019-03-31T23:07:33.274Z,11.63
2019-03-31T23:09:55.671Z,12.78
2019-03-31T23:12:16.212Z,11.33
2019-03-31T23:14:36.779Z,12.37
2019-03-31T23:16:57.456Z,12.18
2019-03-31T23:19:18.342Z,12.05
2019-03-31T23:21:39.153Z,11.80
2019-03-31T23:24:00.030Z,11.65
2019-03-31T23:26:20.728Z,11.53
2019-03-31T23:28:47.405Z,12.18
2019-03-31T23:31:08.129Z,10.65
2019-03-31T23:33:28.977Z,10.78
2019-03-31T23:35:49.660Z,11.03
2019-03-31T23:38:10.478Z,11.78
2019-03-31T23:40:31.042Z,11.10
2019-03-31T23:42:51.760Z,11.03
2019-03-31T23:45:13.485Z,10.98
2019-03-31T23:47:34.133Z,11.63
2019-03-31T23:49:54.253Z,11.12
2019-03-31T23:52:14.825Z,10.93
2019-03-31T23:54:35.642Z,10.95
2019-03-31T23:56:56.982Z,10.28
2019-03-31T23:59:17.666Z,11.50
